sensor_id;sensor_type;location;lat;lon;timestamp;pressure;altitude;pressure_sealevel;temperature;humidity
59194;BME280;44967;48.598;15.650;2022-07-06T00:01:15;98453.31;;;22.10;55.20
59194;BME280;44967;48.598;15.650;2022-07-06T00:03:41;98458.13;;;22.09;56.04
59194;BME280;44967;48.598;15.650;2022-07-06T00:06:07;98458.94;;;21.89;56.39
59194;BME280;44967;48.598;15.650;2022-07-06T00:08:33;98465.75;;;22.05;55.89
59194;BME280;44967;48.598;15.650;2022-07-06T00:10:59;98460.78;;;21.96;55.59
59194;BME280;44967;48.598;15.650;2022-07-06T00:13:26;98467.78;;;21.84;56.36
59194;BME280;44967;48.598;15.650;2022-07-06T00:15:51;98474.84;;;21.89;55.96
59194;BME280;44967;48.598;15.650;2022-07-06T00:18:18;98471.03;;;21.99;56.52
59194;BME280;44967;48.598;15.650;2022-07-06T00:20:43;98471.81;;;22.00;55.86
59194;BME280;44967;48.598;15.650;2022-07-06T00:23:09;98474.03;;;21.88;56.16
59194;BME280;44967;48.598;15.650;2022-07-06T00:25:35;98472.13;;;21.85;56.83
59194;BME280;44967;48.598;15.650;2022-07-06T00:28:00;98468.56;;;21.85;56.30
59194;BME280;44967;48.598;15.650;2022-07-06T00:30:27;98463.75;;;21.69;57.04
59194;BME280;44967;48.598;15.650;2022-07-06T00:32:53;98461.16;;;21.78;56.54
59194;BME280;44967;48.598;15.650;2022-07-06T00:35:19;98455.72;;;21.91;56.38
59194;BME280;44967;48.598;15.650;2022-07-06T00:37:44;98456.78;;;21.97;56.36
59194;BME280;44967;48.598;15.650;2022-07-06T00:40:10;98459.56;;;21.97;56.35
59194;BME280;44967;48.598;15.650;2022-07-06T00:42:43;98454.00;;;21.97;55.62
59194;BME280;44967;48.598;15.650;2022-07-06T00:45:09;98450.16;;;21.91;56.58
59194;BME280;44967;48.598;15.650;2022-07-06T00:47:37;98448.97;;;21.72;57.26
59194;BME280;44967;48.598;15.650;2022-07-06T00:50:07;98446.66;;;21.67;56.93
59194;BME280;44967;48.598;15.650;2022-07-06T00:52:40;98430.22;;;21.76;57.20
59194;BME280;44967;48.598;15.650;2022-07-06T00:55:06;98427.81;;;21.58;56.20
59194;BME280;44967;48.598;15.650;2022-07-06T00:57:32;98437.97;;;21.64;57.12
59194;BME280;44967;48.598;15.650;2022-07-06T00:59:58;98443.00;;;21.73;56.40
59194;BME280;44967;48.598;15.650;2022-07-06T01:02:24;98443.53;;;21.64;57.08
59194;BME280;44967;48.598;15.650;2022-07-06T01:04:49;98448.75;;;21.62;56.74
59194;BME280;44967;48.598;15.650;2022-07-06T01:07:15;98439.69;;;21.58;56.41
59194;BME280;44967;48.598;15.650;2022-07-06T01:09:42;98437.06;;;21.51;57.25
59194;BME280;44967;48.598;15.650;2022-07-06T01:12:07;98439.41;;;21.53;56.95
59194;BME280;44967;48.598;15.650;2022-07-06T01:14:34;98440.50;;;21.59;56.54
59194;BME280;44967;48.598;15.650;2022-07-06T01:17:01;98441.47;;;21.48;57.19
59194;BME280;44967;48.598;15.650;2022-07-06T01:19:27;98437.44;;;21.53;57.00
59194;BME280;44967;48.598;15.650;2022-07-06T01:21:52;98436.56;;;21.56;56.80
59194;BME280;44967;48.598;15.650;2022-07-06T01:24:18;98436.50;;;21.40;57.11
59194;BME280;44967;48.598;15.650;2022-07-06T01:26:44;98429.94;;;21.30;56.38
59194;BME280;44967;48.598;15.650;2022-07-06T01:29:10;98428.50;;;21.21;57.45
59194;BME280;44967;48.598;15.650;2022-07-06T01:31:46;98428.72;;;21.31;56.57
59194;BME280;44967;48.598;15.650;2022-07-06T01:34:13;98427.94;;;21.10;57.52
59194;BME280;44967;48.598;15.650;2022-07-06T01:36:38;98422.22;;;20.97;57.96
59194;BME280;44967;48.598;15.650;2022-07-06T01:39:04;98418.59;;;21.00;56.94
59194;BME280;44967;48.598;15.650;2022-07-06T01:41:30;98427.94;;;21.10;57.15
59194;BME280;44967;48.598;15.650;2022-07-06T01:43:55;98423.56;;;21.09;56.81
59194;BME280;44967;48.598;15.650;2022-07-06T01:46:21;98425.59;;;21.08;57.27
59194;BME280;44967;48.598;15.650;2022-07-06T01:48:47;98428.91;;;21.00;56.61
59194;BME280;44967;48.598;15.650;2022-07-06T01:51:12;98434.19;;;20.94;56.61
59194;BME280;44967;48.598;15.650;2022-07-06T01:53:38;98432.53;;;20.73;57.47
59194;BME280;44967;48.598;15.650;2022-07-06T01:56:04;98431.75;;;20.72;57.58
59194;BME280;44967;48.598;15.650;2022-07-06T01:58:30;98434.41;;;20.79;57.52
59194;BME280;44967;48.598;15.650;2022-07-06T02:00:55;98440.06;;;20.72;56.39
59194;BME280;44967;48.598;15.650;2022-07-06T02:03:21;98440.53;;;20.67;57.30
59194;BME280;44967;48.598;15.650;2022-07-06T02:05:47;98436.66;;;20.64;57.40
59194;BME280;44967;48.598;15.650;2022-07-06T02:08:12;98442.84;;;20.72;56.83
59194;BME280;44967;48.598;15.650;2022-07-06T02:10:38;98445.69;;;20.68;57.18
59194;BME280;44967;48.598;15.650;2022-07-06T02:13:03;98450.88;;;20.66;57.15
59194;BME280;44967;48.598;15.650;2022-07-06T02:15:29;98443.09;;;20.58;57.42
59194;BME280;44967;48.598;15.650;2022-07-06T02:17:55;98448.22;;;20.59;56.74
59194;BME280;44967;48.598;15.650;2022-07-06T02:20:20;98446.25;;;20.60;56.62
59194;BME280;44967;48.598;15.650;2022-07-06T02:22:46;98445.84;;;20.58;56.71
59194;BME280;44967;48.598;15.650;2022-07-06T02:25:11;98448.44;;;20.45;57.53
59194;BME280;44967;48.598;15.650;2022-07-06T02:27:37;98453.56;;;20.46;56.97
59194;BME280;44967;48.598;15.650;2022-07-06T02:30:04;98454.53;;;20.36;57.95
59194;BME280;44967;48.598;15.650;2022-07-06T02:32:31;98451.31;;;20.37;57.86
59194;BME280;44967;48.598;15.650;2022-07-06T02:34:57;98456.31;;;20.50;57.42
59194;BME280;44967;48.598;15.650;2022-07-06T02:37:24;98446.63;;;20.34;56.82
59194;BME280;44967;48.598;15.650;2022-07-06T02:39:49;98445.16;;;20.26;57.36
59194;BME280;44967;48.598;15.650;2022-07-06T02:42:15;98442.81;;;20.24;56.74
59194;BME280;44967;48.598;15.650;2022-07-06T02:44:40;98448.31;;;20.28;57.47
59194;BME280;44967;48.598;15.650;2022-07-06T02:47:06;98452.22;;;20.31;57.06
59194;BME280;44967;48.598;15.650;2022-07-06T02:49:32;98444.88;;;20.20;56.49
59194;BME280;44967;48.598;15.650;2022-07-06T02:51:58;98452.38;;;20.20;57.21
59194;BME280;44967;48.598;15.650;2022-07-06T02:54:23;98449.97;;;20.22;56.90
59194;BME280;44967;48.598;15.650;2022-07-06T02:56:49;98448.34;;;20.24;57.15
59194;BME280;44967;48.598;15.650;2022-07-06T02:59:19;98451.06;;;20.00;56.86
59194;BME280;44967;48.598;15.650;2022-07-06T03:01:45;98449.50;;;19.99;57.45
59194;BME280;44967;48.598;15.650;2022-07-06T03:04:10;98453.16;;;19.93;57.05
59194;BME280;44967;48.598;15.650;2022-07-06T03:06:36;98445.22;;;19.95;57.15
59194;BME280;44967;48.598;15.650;2022-07-06T03:09:02;98453.56;;;19.91;56.85
59194;BME280;44967;48.598;15.650;2022-07-06T03:11:28;98449.97;;;19.94;57.09
59194;BME280;44967;48.598;15.650;2022-07-06T03:13:53;98453.91;;;19.93;57.11
59194;BME280;44967;48.598;15.650;2022-07-06T03:16:19;98451.19;;;19.90;56.81
59194;BME280;44967;48.598;15.650;2022-07-06T03:18:44;98461.50;;;19.89;57.01
59194;BME280;44967;48.598;15.650;2022-07-06T03:21:10;98452.75;;;19.94;56.50
59194;BME280;44967;48.598;15.650;2022-07-06T03:23:36;98461.13;;;19.87;56.97
59194;BME280;44967;48.598;15.650;2022-07-06T03:26:01;98457.53;;;19.90;56.31
59194;BME280;44967;48.598;15.650;2022-07-06T03:28:27;98455.56;;;19.87;56.21
59194;BME280;44967;48.598;15.650;2022-07-06T03:30:53;98459.19;;;19.84;56.64
59194;BME280;44967;48.598;15.650;2022-07-06T03:33:18;98467.09;;;19.85;56.57
59194;BME280;44967;48.598;15.650;2022-07-06T03:35:44;98457.97;;;19.85;56.74
59194;BME280;44967;48.598;15.650;2022-07-06T03:38:10;98468.66;;;19.86;57.09
59194;BME280;44967;48.598;15.650;2022-07-06T03:40:35;98471.09;;;19.81;57.39
59194;BME280;44967;48.598;15.650;2022-07-06T03:43:01;98468.66;;;19.86;56.73
59194;BME280;44967;48.598;15.650;2022-07-06T03:45:26;98468.97;;;19.92;56.98
59194;BME280;44967;48.598;15.650;2022-07-06T03:47:52;98468.91;;;19.99;56.42
59194;BME280;44967;48.598;15.650;2022-07-06T03:50:18;98471.38;;;19.90;56.32
59194;BME280;44967;48.598;15.650;2022-07-06T03:52:43;98471.75;;;19.92;56.23
59194;BME280;44967;48.598;15.650;2022-07-06T03:55:10;98480.44;;;19.94;56.63
59194;BME280;44967;48.598;15.650;2022-07-06T03:57:37;98476.34;;;20.06;57.42
59194;BME280;44967;48.598;15.650;2022-07-06T04:00:04;98468.72;;;20.14;56.76
59194;BME280;44967;48.598;15.650;2022-07-06T04:02:30;98472.09;;;20.25;56.38
59194;BME280;44967;48.598;15.650;2022-07-06T04:04:55;98464.94;;;20.28;55.97
59194;BME280;44967;48.598;15.650;2022-07-06T04:07:21;98466.66;;;20.18;56.39
59194;BME280;44967;48.598;15.650;2022-07-06T04:09:47;98457.88;;;20.23;56.16
59194;BME280;44967;48.598;15.650;2022-07-06T04:12:12;98461.81;;;20.26;56.29
59194;BME280;44967;48.598;15.650;2022-07-06T04:14:38;98452.91;;;20.38;56.63
59194;BME280;44967;48.598;15.650;2022-07-06T04:17:04;98449.19;;;20.49;56.50
59194;BME280;44967;48.598;15.650;2022-07-06T04:19:50;98454.06;;;20.65;56.62
59194;BME280;44967;48.598;15.650;2022-07-06T04:22:15;98453.41;;;20.81;56.51
59194;BME280;44967;48.598;15.650;2022-07-06T04:24:41;98456.50;;;20.87;56.88
59194;BME280;44967;48.598;15.650;2022-07-06T04:27:07;98460.59;;;21.02;56.36
59194;BME280;44967;48.598;15.650;2022-07-06T04:29:32;98460.47;;;21.09;56.38
59194;BME280;44967;48.598;15.650;2022-07-06T04:31:58;98457.97;;;21.15;56.12
59194;BME280;44967;48.598;15.650;2022-07-06T04:34:24;98455.56;;;21.17;56.32
59194;BME280;44967;48.598;15.650;2022-07-06T04:36:49;98446.81;;;21.19;56.56
59194;BME280;44967;48.598;15.650;2022-07-06T04:39:15;98440.41;;;21.22;56.08
59194;BME280;44967;48.598;15.650;2022-07-06T04:41:40;98446.69;;;21.26;56.69
59194;BME280;44967;48.598;15.650;2022-07-06T04:44:06;98444.44;;;21.17;57.07
59194;BME280;44967;48.598;15.650;2022-07-06T04:46:32;98449.09;;;21.24;56.62
59194;BME280;44967;48.598;15.650;2022-07-06T04:48:57;98449.44;;;21.26;56.06
59194;BME280;44967;48.598;15.650;2022-07-06T04:51:23;98451.78;;;21.07;57.19
59194;BME280;44967;48.598;15.650;2022-07-06T04:53:48;98456.47;;;21.10;57.38
59194;BME280;44967;48.598;15.650;2022-07-06T04:56:14;98458.28;;;21.21;57.38
59194;BME280;44967;48.598;15.650;2022-07-06T04:58:39;98464.13;;;21.27;57.54
59194;BME280;44967;48.598;15.650;2022-07-06T05:01:05;98483.44;;;21.34;57.58
59194;BME280;44967;48.598;15.650;2022-07-06T05:03:30;98507.09;;;21.42;57.21
59194;BME280;44967;48.598;15.650;2022-07-06T05:05:56;98537.06;;;21.31;57.53
59194;BME280;44967;48.598;15.650;2022-07-06T05:08:22;98512.78;;;21.35;58.29
59194;BME280;44967;48.598;15.650;2022-07-06T05:10:48;98505.72;;;21.30;57.22
59194;BME280;44967;48.598;15.650;2022-07-06T05:13:14;98503.88;;;21.64;57.40
59194;BME280;44967;48.598;15.650;2022-07-06T05:15:39;98515.06;;;21.60;57.03
59194;BME280;44967;48.598;15.650;2022-07-06T05:18:05;98515.06;;;21.60;57.31
59194;BME280;44967;48.598;15.650;2022-07-06T05:20:30;98512.03;;;21.95;56.73
59194;BME280;44967;48.598;15.650;2022-07-06T05:22:56;98505.94;;;22.21;54.06
59194;BME280;44967;48.598;15.650;2022-07-06T05:25:22;98510.31;;;22.38;54.48
59194;BME280;44967;48.598;15.650;2022-07-06T05:27:47;98523.78;;;22.40;55.26
59194;BME280;44967;48.598;15.650;2022-07-06T05:30:13;98519.06;;;22.73;54.31
59194;BME280;44967;48.598;15.650;2022-07-06T05:32:40;98513.31;;;22.97;52.65
59194;BME280;44967;48.598;15.650;2022-07-06T05:35:07;98500.59;;;23.13;52.14
59194;BME280;44967;48.598;15.650;2022-07-06T05:37:33;98518.50;;;23.28;51.92
59194;BME280;44967;48.598;15.650;2022-07-06T05:39:59;98531.53;;;23.48;51.57
59194;BME280;44967;48.598;15.650;2022-07-06T05:42:24;98515.59;;;23.49;52.21
59194;BME280;44967;48.598;15.650;2022-07-06T05:44:50;98526.03;;;23.61;52.61
59194;BME280;44967;48.598;15.650;2022-07-06T05:47:15;98537.06;;;23.65;51.36
59194;BME280;44967;48.598;15.650;2022-07-06T05:50:00;98537.75;;;23.69;52.27
59194;BME280;44967;48.598;15.650;2022-07-06T05:52:39;98536.41;;;23.74;51.00
59194;BME280;44967;48.598;15.650;2022-07-06T05:55:05;98536.03;;;23.59;52.13
59194;BME280;44967;48.598;15.650;2022-07-06T05:57:31;98530.66;;;23.51;51.91
59194;BME280;44967;48.598;15.650;2022-07-06T05:59:56;98549.31;;;23.38;52.14
59194;BME280;44967;48.598;15.650;2022-07-06T06:02:22;98549.94;;;23.46;52.16
59194;BME280;44967;48.598;15.650;2022-07-06T06:04:47;98541.41;;;23.03;51.14
59194;BME280;44967;48.598;15.650;2022-07-06T06:07:13;98530.88;;;23.27;51.18
59194;BME280;44967;48.598;15.650;2022-07-06T06:09:39;98528.44;;;23.13;50.32
59194;BME280;44967;48.598;15.650;2022-07-06T06:12:06;98514.34;;;23.20;49.79
59194;BME280;44967;48.598;15.650;2022-07-06T06:14:33;98506.84;;;23.34;49.92
59194;BME280;44967;48.598;15.650;2022-07-06T06:17:00;98507.44;;;23.41;49.77
59194;BME280;44967;48.598;15.650;2022-07-06T06:19:26;98510.34;;;23.51;49.86
59194;BME280;44967;48.598;15.650;2022-07-06T06:21:51;98509.94;;;23.52;50.37
59194;BME280;44967;48.598;15.650;2022-07-06T06:24:17;98505.81;;;23.57;50.26
59194;BME280;44967;48.598;15.650;2022-07-06T06:26:43;98494.38;;;23.68;50.05
59194;BME280;44967;48.598;15.650;2022-07-06T06:29:09;98470.69;;;23.60;49.66
59194;BME280;44967;48.598;15.650;2022-07-06T06:31:34;98485.97;;;23.55;48.62
59194;BME280;44967;48.598;15.650;2022-07-06T06:34:00;98485.09;;;23.71;49.09
59194;BME280;44967;48.598;15.650;2022-07-06T06:36:26;98478.09;;;23.79;49.38
59194;BME280;44967;48.598;15.650;2022-07-06T06:38:51;98479.00;;;23.89;48.13
59194;BME280;44967;48.598;15.650;2022-07-06T06:41:17;98480.56;;;23.77;45.90
59194;BME280;44967;48.598;15.650;2022-07-06T06:43:43;98488.59;;;23.88;47.88
59194;BME280;44967;48.598;15.650;2022-07-06T06:46:11;98481.72;;;24.06;46.97
59194;BME280;44967;48.598;15.650;2022-07-06T06:48:37;98466.13;;;24.47;46.78
59194;BME280;44967;48.598;15.650;2022-07-06T06:51:04;98461.31;;;25.09;44.76
59194;BME280;44967;48.598;15.650;2022-07-06T06:53:29;98463.19;;;26.01;43.18
59194;BME280;44967;48.598;15.650;2022-07-06T06:55:55;98456.66;;;27.43;40.28
59194;BME280;44967;48.598;15.650;2022-07-06T06:58:20;98451.13;;;28.87;37.41
59194;BME280;44967;48.598;15.650;2022-07-06T07:00:46;98448.59;;;30.90;34.43
59194;BME280;44967;48.598;15.650;2022-07-06T07:03:13;98445.97;;;32.46;31.89
59194;BME280;44967;48.598;15.650;2022-07-06T07:05:39;98442.47;;;33.46;29.68
59194;BME280;44967;48.598;15.650;2022-07-06T07:08:05;98436.56;;;34.41;28.28
59194;BME280;44967;48.598;15.650;2022-07-06T07:10:31;98437.50;;;35.25;26.63
59194;BME280;44967;48.598;15.650;2022-07-06T07:12:57;98441.53;;;35.84;26.19
59194;BME280;44967;48.598;15.650;2022-07-06T07:15:23;98437.97;;;35.35;26.87
59194;BME280;44967;48.598;15.650;2022-07-06T07:17:48;98448.44;;;35.58;26.74
59194;BME280;44967;48.598;15.650;2022-07-06T07:20:14;98446.75;;;36.04;26.27
59194;BME280;44967;48.598;15.650;2022-07-06T07:22:40;98451.41;;;36.02;25.44
59194;BME280;44967;48.598;15.650;2022-07-06T07:25:06;98452.00;;;36.75;25.44
59194;BME280;44967;48.598;15.650;2022-07-06T07:27:32;98459.84;;;37.32;25.50
59194;BME280;44967;48.598;15.650;2022-07-06T07:29:57;98469.34;;;37.15;25.82
59194;BME280;44967;48.598;15.650;2022-07-06T07:32:23;98476.16;;;37.83;25.37
59194;BME280;44967;48.598;15.650;2022-07-06T07:34:48;98474.66;;;37.44;24.73
59194;BME280;44967;48.598;15.650;2022-07-06T07:37:14;98482.28;;;36.47;25.54
59194;BME280;44967;48.598;15.650;2022-07-06T07:39:40;98484.84;;;35.53;26.20
59194;BME280;44967;48.598;15.650;2022-07-06T07:42:06;98496.03;;;36.13;26.61
59194;BME280;44967;48.598;15.650;2022-07-06T07:44:32;98483.63;;;35.37;26.81
59194;BME280;44967;48.598;15.650;2022-07-06T07:46:57;98493.72;;;33.54;28.32
59194;BME280;44967;48.598;15.650;2022-07-06T07:49:23;98497.34;;;33.83;27.76
59194;BME280;44967;48.598;15.650;2022-07-06T07:51:49;98502.50;;;33.96;28.45
59194;BME280;44967;48.598;15.650;2022-07-06T07:54:14;98497.13;;;33.98;28.07
59194;BME280;44967;48.598;15.650;2022-07-06T07:56:40;98491.19;;;34.30;27.94
59194;BME280;44967;48.598;15.650;2022-07-06T07:59:07;98486.78;;;34.52;27.80
59194;BME280;44967;48.598;15.650;2022-07-06T08:01:33;98491.97;;;35.30;26.65
59194;BME280;44967;48.598;15.650;2022-07-06T08:03:59;98486.56;;;35.26;26.64
59194;BME280;44967;48.598;15.650;2022-07-06T08:06:25;98483.78;;;35.57;26.81
59194;BME280;44967;48.598;15.650;2022-07-06T08:08:51;98479.84;;;35.71;26.72
59194;BME280;44967;48.598;15.650;2022-07-06T08:11:16;98476.91;;;35.82;26.09
59194;BME280;44967;48.598;15.650;2022-07-06T08:13:42;98481.69;;;35.63;25.54
59194;BME280;44967;48.598;15.650;2022-07-06T08:16:08;98483.13;;;35.81;25.28
59194;BME280;44967;48.598;15.650;2022-07-06T08:18:36;98489.94;;;35.19;25.34
59194;BME280;44967;48.598;15.650;2022-07-06T08:21:02;98497.72;;;35.01;25.53
59194;BME280;44967;48.598;15.650;2022-07-06T08:23:28;98502.59;;;35.12;26.06
59194;BME280;44967;48.598;15.650;2022-07-06T08:25:54;98503.97;;;35.47;27.15
59194;BME280;44967;48.598;15.650;2022-07-06T08:28:20;98501.78;;;35.23;26.75
59194;BME280;44967;48.598;15.650;2022-07-06T08:30:45;98508.75;;;35.22;26.87
59194;BME280;44967;48.598;15.650;2022-07-06T08:33:13;98513.88;;;35.77;26.75
59194;BME280;44967;48.598;15.650;2022-07-06T08:35:39;98513.09;;;35.34;26.69
59194;BME280;44967;48.598;15.650;2022-07-06T08:38:04;98514.91;;;34.32;28.37
59194;BME280;44967;48.598;15.650;2022-07-06T08:40:33;98512.91;;;35.68;26.56
59194;BME280;44967;48.598;15.650;2022-07-06T08:43:00;98514.00;;;35.54;25.62
59194;BME280;44967;48.598;15.650;2022-07-06T08:45:26;98519.53;;;34.36;27.96
59194;BME280;44967;48.598;15.650;2022-07-06T08:47:54;98522.09;;;34.62;27.46
59194;BME280;44967;48.598;15.650;2022-07-06T08:50:20;98523.09;;;34.76;27.48
59194;BME280;44967;48.598;15.650;2022-07-06T08:52:47;98524.88;;;34.73;27.35
59194;BME280;44967;48.598;15.650;2022-07-06T08:55:15;98524.63;;;34.83;27.29
59194;BME280;44967;48.598;15.650;2022-07-06T08:57:42;98520.13;;;35.16;27.56
59194;BME280;44967;48.598;15.650;2022-07-06T09:00:08;98539.34;;;33.12;29.78
59194;BME280;44967;48.598;15.650;2022-07-06T09:02:34;98545.41;;;32.88;30.97
59194;BME280;44967;48.598;15.650;2022-07-06T09:05:02;98537.66;;;32.82;30.47
59194;BME280;44967;48.598;15.650;2022-07-06T09:07:28;98544.72;;;32.28;31.67
59194;BME280;44967;48.598;15.650;2022-07-06T09:09:55;98539.03;;;32.55;32.74
59194;BME280;44967;48.598;15.650;2022-07-06T09:12:21;98538.28;;;33.04;31.82
59194;BME280;44967;48.598;15.650;2022-07-06T09:14:47;98540.91;;;33.13;31.70
59194;BME280;44967;48.598;15.650;2022-07-06T09:17:13;98542.75;;;33.22;31.92
59194;BME280;44967;48.598;15.650;2022-07-06T09:19:38;98545.09;;;33.29;31.58
59194;BME280;44967;48.598;15.650;2022-07-06T09:22:04;98548.69;;;32.80;31.57
59194;BME280;44967;48.598;15.650;2022-07-06T09:24:31;98548.28;;;32.55;32.17
59194;BME280;44967;48.598;15.650;2022-07-06T09:26:57;98538.78;;;32.59;30.97
59194;BME280;44967;48.598;15.650;2022-07-06T09:29:28;98549.44;;;32.75;30.89
59194;BME280;44967;48.598;15.650;2022-07-06T09:32:02;98538.06;;;33.07;30.16
59194;BME280;44967;48.598;15.650;2022-07-06T09:34:45;98541.22;;;33.32;29.54
59194;BME280;44967;48.598;15.650;2022-07-06T09:37:12;98539.44;;;33.29;30.38
59194;BME280;44967;48.598;15.650;2022-07-06T09:39:38;98540.41;;;33.20;30.12
59194;BME280;44967;48.598;15.650;2022-07-06T09:42:06;98536.34;;;33.33;30.40
59194;BME280;44967;48.598;15.650;2022-07-06T09:44:36;98540.31;;;32.97;30.94
59194;BME280;44967;48.598;15.650;2022-07-06T09:47:07;98540.25;;;32.92;31.20
59194;BME280;44967;48.598;15.650;2022-07-06T09:49:34;98533.91;;;32.97;31.40
59194;BME280;44967;48.598;15.650;2022-07-06T09:52:03;98538.38;;;32.77;30.35
59194;BME280;44967;48.598;15.650;2022-07-06T09:54:29;98527.03;;;32.66;31.29
59194;BME280;44967;48.598;15.650;2022-07-06T09:56:56;98528.94;;;32.86;30.86
59194;BME280;44967;48.598;15.650;2022-07-06T09:59:27;98528.75;;;32.52;30.00
59194;BME280;44967;48.598;15.650;2022-07-06T10:01:55;98530.84;;;33.06;29.18
59194;BME280;44967;48.598;15.650;2022-07-06T10:04:21;98532.34;;;32.96;29.27
59194;BME280;44967;48.598;15.650;2022-07-06T10:06:48;98544.63;;;32.93;28.20
59194;BME280;44967;48.598;15.650;2022-07-06T10:09:14;98548.63;;;31.31;31.42
59194;BME280;44967;48.598;15.650;2022-07-06T10:11:42;98532.03;;;32.45;29.49
59194;BME280;44967;48.598;15.650;2022-07-06T10:14:10;98529.44;;;32.41;29.59
59194;BME280;44967;48.598;15.650;2022-07-06T10:16:39;98536.47;;;32.25;28.97
59194;BME280;44967;48.598;15.650;2022-07-06T10:19:06;98539.31;;;31.72;29.67
59194;BME280;44967;48.598;15.650;2022-07-06T10:21:36;98535.97;;;32.26;29.13
59194;BME280;44967;48.598;15.650;2022-07-06T10:24:02;98532.31;;;32.52;28.08
59194;BME280;44967;48.598;15.650;2022-07-06T10:26:28;98526.13;;;32.16;29.48
59194;BME280;44967;48.598;15.650;2022-07-06T10:28:54;98521.25;;;32.17;29.82
59194;BME280;44967;48.598;15.650;2022-07-06T10:31:20;98519.78;;;33.03;28.12
59194;BME280;44967;48.598;15.650;2022-07-06T10:33:47;98521.41;;;32.77;28.35
59194;BME280;44967;48.598;15.650;2022-07-06T10:36:13;98523.69;;;32.35;29.19
59194;BME280;44967;48.598;15.650;2022-07-06T10:38:40;98522.47;;;32.86;29.22
59194;BME280;44967;48.598;15.650;2022-07-06T10:41:07;98510.19;;;32.89;28.76
59194;BME280;44967;48.598;15.650;2022-07-06T10:43:41;98517.28;;;33.22;28.60
59194;BME280;44967;48.598;15.650;2022-07-06T10:46:12;98517.00;;;32.33;28.65
59194;BME280;44967;48.598;15.650;2022-07-06T10:48:42;98513.06;;;33.00;30.47
59194;BME280;44967;48.598;15.650;2022-07-06T10:51:13;98532.25;;;33.34;26.80
59194;BME280;44967;48.598;15.650;2022-07-06T10:53:55;98522.19;;;33.27;27.19
59194;BME280;44967;48.598;15.650;2022-07-06T10:56:40;98516.34;;;32.87;27.32
59194;BME280;44967;48.598;15.650;2022-07-06T10:59:09;98518.38;;;33.47;29.20
59194;BME280;44967;48.598;15.650;2022-07-06T11:01:37;98533.78;;;32.10;27.92
59194;BME280;44967;48.598;15.650;2022-07-06T11:06:32;98523.38;;;32.27;28.14
59194;BME280;44967;48.598;15.650;2022-07-06T11:08:59;98523.81;;;32.90;27.70
59194;BME280;44967;48.598;15.650;2022-07-06T11:11:40;98529.34;;;32.67;27.49
59194;BME280;44967;48.598;15.650;2022-07-06T11:14:17;98521.94;;;32.38;28.45
59194;BME280;44967;48.598;15.650;2022-07-06T11:19:19;98523.22;;;32.75;27.80
59194;BME280;44967;48.598;15.650;2022-07-06T11:21:50;98529.63;;;33.24;27.83
59194;BME280;44967;48.598;15.650;2022-07-06T11:24:21;98528.75;;;33.62;27.40
59194;BME280;44967;48.598;15.650;2022-07-06T11:26:49;98535.53;;;33.15;26.35
59194;BME280;44967;48.598;15.650;2022-07-06T11:29:17;98533.44;;;33.10;26.99
59194;BME280;44967;48.598;15.650;2022-07-06T11:31:44;98539.13;;;32.72;27.43
59194;BME280;44967;48.598;15.650;2022-07-06T11:34:12;98530.69;;;32.78;27.57
59194;BME280;44967;48.598;15.650;2022-07-06T11:36:40;98534.13;;;32.93;26.80
59194;BME280;44967;48.598;15.650;2022-07-06T11:39:06;98534.47;;;32.69;26.86
59194;BME280;44967;48.598;15.650;2022-07-06T11:41:33;98538.09;;;31.79;27.09
59194;BME280;44967;48.598;15.650;2022-07-06T11:43:59;98533.81;;;32.42;26.84
59194;BME280;44967;48.598;15.650;2022-07-06T11:46:29;98525.38;;;32.91;27.70
59194;BME280;44967;48.598;15.650;2022-07-06T11:49:00;98533.34;;;32.17;27.76
59194;BME280;44967;48.598;15.650;2022-07-06T11:51:28;98538.22;;;31.90;27.99
59194;BME280;44967;48.598;15.650;2022-07-06T11:53:58;98536.22;;;31.96;28.25
59194;BME280;44967;48.598;15.650;2022-07-06T11:56:30;98534.34;;;31.87;28.81
59194;BME280;44967;48.598;15.650;2022-07-06T11:58:58;98537.06;;;32.03;28.14
59194;BME280;44967;48.598;15.650;2022-07-06T12:01:26;98525.09;;;32.46;27.65
59194;BME280;44967;48.598;15.650;2022-07-06T12:03:56;98518.94;;;32.47;27.46
59194;BME280;44967;48.598;15.650;2022-07-06T12:06:23;98528.38;;;32.38;27.36
59194;BME280;44967;48.598;15.650;2022-07-06T12:08:51;98525.03;;;32.08;26.68
59194;BME280;44967;48.598;15.650;2022-07-06T12:11:28;98521.88;;;32.00;26.73
59194;BME280;44967;48.598;15.650;2022-07-06T12:13:56;98530.53;;;31.23;27.06
59194;BME280;44967;48.598;15.650;2022-07-06T12:16:35;98535.13;;;30.99;27.67
59194;BME280;44967;48.598;15.650;2022-07-06T12:19:03;98533.63;;;31.04;28.46
59194;BME280;44967;48.598;15.650;2022-07-06T12:21:29;98535.38;;;30.81;28.89
59194;BME280;44967;48.598;15.650;2022-07-06T12:23:56;98525.09;;;30.62;28.01
59194;BME280;44967;48.598;15.650;2022-07-06T12:26:24;98521.94;;;31.32;27.71
59194;BME280;44967;48.598;15.650;2022-07-06T12:31:48;98522.13;;;31.76;27.50
59194;BME280;44967;48.598;15.650;2022-07-06T12:34:19;98523.38;;;31.95;27.39
59194;BME280;44967;48.598;15.650;2022-07-06T12:36:57;98529.75;;;31.90;27.92
59194;BME280;44967;48.598;15.650;2022-07-06T12:39:27;98526.47;;;31.97;27.85
59194;BME280;44967;48.598;15.650;2022-07-06T12:42:01;98530.34;;;31.73;27.76
59194;BME280;44967;48.598;15.650;2022-07-06T12:44:28;98518.63;;;31.33;27.40
59194;BME280;44967;48.598;15.650;2022-07-06T12:47:08;98520.56;;;31.48;27.61
59194;BME280;44967;48.598;15.650;2022-07-06T12:49:36;98515.75;;;32.01;28.06
59194;BME280;44967;48.598;15.650;2022-07-06T12:54:48;98518.94;;;32.47;27.86
59194;BME280;44967;48.598;15.650;2022-07-06T12:57:17;98519.78;;;32.27;26.88
59194;BME280;44967;48.598;15.650;2022-07-06T13:02:23;98524.88;;;31.43;28.25